Time;durP1;ratioP1;P1;durP2;ratioP2;P2;SDS_P1;SDS_P2;PMS_P1;PMS_P2;Temp;Humidity;BMP_temperature;BMP_pressure;BME280_temperature;BME280_humidity;BME280_pressure;Samples;Min_cycle;Max_cycle;Signal;HPM_P1;HPM_P2
2022/05/23 00:01:16;;;;;;;;;;;14.60;99.90;;;;;;5002222;28;19956;-65
2022/05/23 00:03:42;;;;;;;;;;;14.60;99.90;;;;;;4999752;28;19925;-65
2022/05/23 00:06:17;;;;;;;;;;;14.70;99.90;;;;;;5000524;28;20013;-65
2022/05/23 00:08:44;;;;;;;;;;;14.70;99.90;;;;;;4983422;28;19925;-66
2022/05/23 00:11:11;;;;;;;;;;;14.70;99.90;;;;;;5005493;28;19925;-65
2022/05/23 00:13:38;;;;;;;;;;;14.80;99.90;;;;;;5006391;28;19926;-65
2022/05/23 00:16:05;;;;;;;;;;;14.80;99.90;;;;;;5008277;28;19932;-66
2022/05/23 00:18:32;;;;;;;;;;;14.80;99.90;;;;;;5005271;28;19991;-65
2022/05/23 00:20:59;;;;;;;;;;;14.80;99.90;;;;;;5009276;28;19932;-65
2022/05/23 00:23:25;;;;;;;;;;;14.80;99.90;;;;;;5003964;28;19926;-65
2022/05/23 00:25:52;;;;;;;;;;;14.80;99.90;;;;;;5004451;28;19925;-65
2022/05/23 00:28:19;;;;;;;;;;;14.90;99.90;;;;;;5007735;28;19932;-65
2022/05/23 00:30:45;;;;;;;;;;;14.90;99.90;;;;;;4996638;28;20017;-65
2022/05/23 00:35:57;;;;;;;;;;;14.90;99.90;;;;;;5000761;28;19925;-65
2022/05/23 00:38:24;;;;;;;;;;;14.90;99.90;;;;;;5004466;28;20379;-65
2022/05/23 00:43:50;;;;;;;;;;;15.00;99.90;;;;;;4998528;28;19943;-65
2022/05/23 00:46:16;;;;;;;;;;;15.00;99.90;;;;;;5007861;28;19929;-65
2022/05/23 00:48:46;;;;;;;;;;;15.00;99.90;;;;;;5006009;28;19929;-65
2022/05/23 00:51:14;;;;;;;;;;;15.10;99.90;;;;;;5008037;28;19925;-65
2022/05/23 00:53:47;;;;;;;;;;;15.10;99.90;;;;;;5010551;28;19925;-65
2022/05/23 00:56:15;;;;;;;;;;;15.20;99.90;;;;;;5009317;28;19937;-65
2022/05/23 00:58:51;;;;;;;;;;;15.20;99.90;;;;;;5008100;28;20537;-64
2022/05/23 01:01:23;;;;;;;;;;;15.20;99.90;;;;;;5002098;28;20022;-65
2022/05/23 01:03:50;;;;;;;;;;;15.20;99.90;;;;;;5005993;28;19934;-64
2022/05/23 01:06:17;;;;;;;;;;;15.20;99.90;;;;;;5009252;28;19932;-65
2022/05/23 01:08:44;;;;;;;;;;;15.10;99.90;;;;;;4994131;28;19932;-65
2022/05/23 01:11:12;;;;;;;;;;;15.10;99.90;;;;;;5008171;28;19926;-65
2022/05/23 01:13:39;;;;;;;;;;;15.00;99.90;;;;;;5008762;28;20009;-65
2022/05/23 01:16:06;;;;;;;;;;;15.00;99.90;;;;;;5010842;28;19931;-66
2022/05/23 01:18:33;;;;;;;;;;;14.90;99.90;;;;;;5009702;28;19972;-65
2022/05/23 01:21:01;;;;;;;;;;;14.80;99.90;;;;;;5004938;28;20029;-65
2022/05/23 01:23:36;;;;;;;;;;;14.70;99.90;;;;;;5010542;28;20518;-65
2022/05/23 01:26:09;;;;;;;;;;;14.60;99.90;;;;;;5001321;28;19925;-65
2022/05/23 01:28:40;;;;;;;;;;;14.40;99.90;;;;;;5008997;28;20012;-65
2022/05/23 01:31:09;;;;;;;;;;;14.30;99.90;;;;;;5003743;28;19933;-64
2022/05/23 01:33:36;;;;;;;;;;;14.20;99.90;;;;;;5008662;28;20020;-64
2022/05/23 01:36:10;;;;;;;;;;;14.10;99.90;;;;;;5005511;28;19926;-64
2022/05/23 01:38:36;;;;;;;;;;;14.10;99.90;;;;;;5010755;28;19926;-65
2022/05/23 01:41:04;;;;;;;;;;;14.10;99.90;;;;;;4996374;28;20371;-64
2022/05/23 01:43:31;;;;;;;;;;;14.10;99.90;;;;;;5002775;28;20008;-65
2022/05/23 01:45:58;;;;;;;;;;;14.10;99.90;;;;;;5007705;28;19940;-65
2022/05/23 01:48:25;;;;;;;;;;;14.00;99.90;;;;;;5011819;28;19979;-65
2022/05/23 01:50:52;;;;;;;;;;;13.90;99.90;;;;;;5007080;28;19926;-64
2022/05/23 01:53:21;;;;;;;;;;;13.90;99.90;;;;;;5009398;28;19933;-65
2022/05/23 01:55:48;;;;;;;;;;;13.90;99.90;;;;;;4999269;28;19933;-63
2022/05/23 01:58:14;;;;;;;;;;;13.90;99.90;;;;;;5003318;28;20011;-65
2022/05/23 02:03:26;;;;;;;;;;;14.00;99.90;;;;;;5002600;28;19932;-64
2022/05/23 02:05:53;;;;;;;;;;;14.00;99.90;;;;;;5009291;28;19941;-65
2022/05/23 02:08:20;;;;;;;;;;;14.00;99.90;;;;;;5009146;28;20012;-65
2022/05/23 02:10:46;;;;;;;;;;;14.00;99.90;;;;;;5007019;28;20258;-65
2022/05/23 02:13:19;;;;;;;;;;;14.00;99.90;;;;;;5004655;28;19930;-65
2022/05/23 02:15:45;;;;;;;;;;;14.10;99.90;;;;;;5038292;28;19926;-65
2022/05/23 02:18:12;;;;;;;;;;;14.00;99.90;;;;;;5005941;28;20115;-64
2022/05/23 02:20:39;;;;;;;;;;;14.00;99.90;;;;;;5005378;28;20399;-65
2022/05/23 02:23:06;;;;;;;;;;;14.10;99.90;;;;;;5024049;28;19932;-65
2022/05/23 02:25:33;;;;;;;;;;;14.10;99.90;;;;;;5001440;28;19925;-65
2022/05/23 02:28:00;;;;;;;;;;;14.10;99.90;;;;;;5007382;28;19931;-65
2022/05/23 02:30:26;;;;;;;;;;;14.10;99.90;;;;;;5006925;28;19984;-64
2022/05/23 02:32:53;;;;;;;;;;;14.10;99.90;;;;;;5006430;28;19930;-64
2022/05/23 02:35:20;;;;;;;;;;;14.10;99.90;;;;;;5001435;28;20016;-65
2022/05/23 02:37:47;;;;;;;;;;;14.20;99.90;;;;;;5006079;28;19972;-64
2022/05/23 02:40:14;;;;;;;;;;;14.20;99.90;;;;;;5011704;28;20013;-63
2022/05/23 02:42:41;;;;;;;;;;;14.30;99.90;;;;;;5005987;28;19931;-65
2022/05/23 02:45:08;;;;;;;;;;;14.30;99.90;;;;;;5005484;28;19929;-65
2022/05/23 02:47:35;;;;;;;;;;;14.30;99.90;;;;;;5010513;28;20013;-65
2022/05/23 02:50:04;;;;;;;;;;;14.20;99.90;;;;;;5006964;28;20004;-64
2022/05/23 02:52:31;;;;;;;;;;;14.20;99.90;;;;;;5002392;28;20004;-65
2022/05/23 02:54:57;;;;;;;;;;;14.20;99.90;;;;;;5007947;28;19931;-65
2022/05/23 02:57:24;;;;;;;;;;;14.20;99.90;;;;;;5001810;28;19932;-64
2022/05/23 02:59:51;;;;;;;;;;;14.20;99.90;;;;;;5008103;28;19944;-63
2022/05/23 03:05:03;;;;;;;;;;;14.20;99.90;;;;;;5003417;28;19926;-64
2022/05/23 03:07:30;;;;;;;;;;;14.20;99.90;;;;;;4996219;28;20452;-65
2022/05/23 03:09:56;;;;;;;;;;;14.20;99.90;;;;;;5005909;28;20025;-65
2022/05/23 03:12:23;;;;;;;;;;;14.20;99.90;;;;;;4998400;28;19948;-65
2022/05/23 03:14:50;;;;;;;;;;;14.30;99.90;;;;;;5008843;28;19932;-65
2022/05/23 03:17:16;;;;;;;;;;;14.30;99.90;;;;;;5005797;28;19925;-64
2022/05/23 03:19:43;;;;;;;;;;;14.30;99.90;;;;;;5001348;28;20324;-65
2022/05/23 03:27:43;;;;;;;;;;;14.30;99.90;;;;;;5013020;28;20343;-63
2022/05/23 03:30:10;;;;;;;;;;;14.40;99.90;;;;;;5001533;28;20396;-64
2022/05/23 03:32:39;;;;;;;;;;;14.40;99.90;;;;;;5005993;28;19929;-65
2022/05/23 03:35:07;;;;;;;;;;;14.40;99.90;;;;;;5008328;28;19966;-66
2022/05/23 03:37:34;;;;;;;;;;;14.50;99.90;;;;;;5007202;28;19940;-65
2022/05/23 03:40:01;;;;;;;;;;;14.50;99.90;;;;;;4997264;28;19925;-66
2022/05/23 03:42:28;;;;;;;;;;;14.60;99.90;;;;;;5010109;28;19926;-66
2022/05/23 03:44:55;;;;;;;;;;;14.60;99.90;;;;;;5003191;28;20016;-65
2022/05/23 03:47:22;;;;;;;;;;;14.60;99.90;;;;;;5009733;28;20027;-65
2022/05/23 03:49:49;;;;;;;;;;;14.70;99.90;;;;;;5005836;28;19934;-66
2022/05/23 03:52:15;;;;;;;;;;;14.70;99.90;;;;;;5005956;28;19926;-65
2022/05/23 03:54:42;;;;;;;;;;;14.80;99.90;;;;;;5008185;28;19929;-66
2022/05/23 03:57:08;;;;;;;;;;;14.90;99.90;;;;;;5008561;28;19932;-65
2022/05/23 03:59:37;;;;;;;;;;;14.90;99.90;;;;;;5010560;28;20016;-66
2022/05/23 04:02:04;;;;;;;;;;;15.00;99.90;;;;;;5003998;28;19926;-66
2022/05/23 04:04:31;;;;;;;;;;;15.00;99.90;;;;;;5006694;28;19925;-65
2022/05/23 04:07:06;;;;;;;;;;;15.00;99.90;;;;;;4998571;28;20534;-65
2022/05/23 04:09:33;;;;;;;;;;;15.00;99.90;;;;;;5008140;28;20015;-65
2022/05/23 04:12:00;;;;;;;;;;;15.00;99.90;;;;;;5007171;28;19926;-65
2022/05/23 04:14:26;;;;;;;;;;;15.00;99.90;;;;;;5011778;28;19925;-66
2022/05/23 04:16:53;;;;;;;;;;;15.00;99.90;;;;;;5010884;28;19968;-65
2022/05/23 04:19:21;;;;;;;;;;;15.00;99.90;;;;;;5010495;28;19933;-66
2022/05/23 04:21:48;;;;;;;;;;;15.00;99.90;;;;;;5007958;28;20618;-66
2022/05/23 04:24:16;;;;;;;;;;;15.00;99.90;;;;;;5007831;28;19925;-65
2022/05/23 04:26:42;;;;;;;;;;;15.00;99.90;;;;;;5010595;28;19929;-64
2022/05/23 04:29:09;;;;;;;;;;;14.90;99.90;;;;;;5008280;28;19925;-65
2022/05/23 04:31:36;;;;;;;;;;;15.00;99.90;;;;;;5009650;28;19960;-65
2022/05/23 04:36:50;;;;;;;;;;;14.80;99.90;;;;;;5009962;28;20000;-65
2022/05/23 04:39:18;;;;;;;;;;;14.70;99.90;;;;;;5009823;28;19939;-66
2022/05/23 04:41:47;;;;;;;;;;;14.60;99.90;;;;;;5012101;28;19948;-66
2022/05/23 04:44:14;;;;;;;;;;;14.60;99.90;;;;;;5008121;28;20457;-65
2022/05/23 04:49:41;;;;;;;;;;;14.60;99.90;;;;;;5005076;28;19932;-65
2022/05/23 04:49:49;;;;;;;;;;;14.70;99.90;;;;;;5007350;28;19932;-65
2022/05/23 04:52:19;;;;;;;;;;;14.90;99.90;;;;;;5005882;28;19995;-66
2022/05/23 04:54:47;;;;;;;;;;;15.00;99.90;;;;;;4996156;28;19929;-65
2022/05/23 04:57:14;;;;;;;;;;;15.00;99.90;;;;;;4998205;28;19925;-67
2022/05/23 04:59:40;;;;;;;;;;;15.00;99.90;;;;;;5008639;28;19932;-64
2022/05/23 05:02:07;;;;;;;;;;;15.10;99.90;;;;;;5004662;28;20016;-66
2022/05/23 05:04:34;;;;;;;;;;;15.00;99.90;;;;;;4999318;28;19934;-66
2022/05/23 05:07:01;;;;;;;;;;;15.00;99.90;;;;;;5020682;28;20377;-65
2022/05/23 05:09:28;;;;;;;;;;;15.00;99.90;;;;;;5008503;28;19925;-64
2022/05/23 05:11:55;;;;;;;;;;;14.90;99.90;;;;;;5008273;28;19932;-64
2022/05/23 05:14:22;;;;;;;;;;;14.70;99.90;;;;;;4996982;28;20577;-65
2022/05/23 05:16:52;;;;;;;;;;;14.50;99.90;;;;;;5006483;28;19926;-64
2022/05/23 05:19:19;;;;;;;;;;;14.30;99.90;;;;;;5005890;28;20368;-65
2022/05/23 05:21:45;;;;;;;;;;;14.00;99.90;;;;;;5008125;28;19933;-65
2022/05/23 05:24:14;;;;;;;;;;;13.80;99.90;;;;;;5006277;28;20015;-66
2022/05/23 05:26:43;;;;;;;;;;;13.60;99.90;;;;;;5007742;28;19955;-66
2022/05/23 05:29:12;;;;;;;;;;;13.50;99.90;;;;;;5004680;28;19933;-67
2022/05/23 05:31:42;;;;;;;;;;;13.30;99.90;;;;;;5004644;28;19925;-67
2022/05/23 05:34:14;;;;;;;;;;;13.20;99.90;;;;;;5007613;28;19925;-67
2022/05/23 05:36:43;;;;;;;;;;;13.10;99.90;;;;;;5000793;28;20377;-67
2022/05/23 05:39:11;;;;;;;;;;;13.10;99.90;;;;;;5036523;28;19967;-67
2022/05/23 05:41:56;;;;;;;;;;;13.10;99.90;;;;;;5006920;28;19944;-67
2022/05/23 05:44:25;;;;;;;;;;;13.20;99.90;;;;;;5007766;28;20404;-69
2022/05/23 05:46:56;;;;;;;;;;;13.20;99.90;;;;;;5003946;28;19989;-73
2022/05/23 05:49:49;;;;;;;;;;;13.10;99.90;;;;;;4999903;28;19948;-68
2022/05/23 05:52:18;;;;;;;;;;;13.20;99.90;;;;;;5010247;28;19936;-66
2022/05/23 05:54:45;;;;;;;;;;;13.20;99.90;;;;;;5010232;28;19931;-66
2022/05/23 05:57:12;;;;;;;;;;;13.20;99.90;;;;;;5006442;28;19987;-68
2022/05/23 05:59:39;;;;;;;;;;;13.20;99.90;;;;;;5002601;28;20021;-68
2022/05/23 06:02:07;;;;;;;;;;;13.30;99.90;;;;;;5007103;28;19925;-68
2022/05/23 06:04:34;;;;;;;;;;;13.40;99.90;;;;;;5004847;28;19934;-68
2022/05/23 06:12:32;;;;;;;;;;;13.80;99.90;;;;;;5004986;28;20416;-67
2022/05/23 06:15:02;;;;;;;;;;;14.00;99.90;;;;;;5001656;28;20304;-66
2022/05/23 06:17:29;;;;;;;;;;;14.10;99.90;;;;;;5009282;28;19933;-65
2022/05/23 06:20:02;;;;;;;;;;;14.40;99.90;;;;;;5007767;28;19929;-72
2022/05/23 06:22:29;;;;;;;;;;;14.60;99.90;;;;;;5007833;28;19975;-71
2022/05/23 06:24:58;;;;;;;;;;;15.00;99.90;;;;;;5008081;28;19925;-71
2022/05/23 06:27:28;;;;;;;;;;;15.50;99.90;;;;;;5002744;28;19934;-68
2022/05/23 06:29:55;;;;;;;;;;;16.10;99.90;;;;;;5005934;28;19929;-68
2022/05/23 06:32:22;;;;;;;;;;;16.80;99.90;;;;;;5002786;28;19929;-68
2022/05/23 06:34:49;;;;;;;;;;;18.00;99.90;;;;;;5006789;28;19940;-68
2022/05/23 06:37:18;;;;;;;;;;;19.20;99.90;;;;;;4998048;28;19940;-68
2022/05/23 06:39:44;;;;;;;;;;;20.50;99.90;;;;;;5001280;28;20491;-66
2022/05/23 06:42:11;;;;;;;;;;;21.10;99.90;;;;;;5005867;28;19960;-65
2022/05/23 06:44:37;;;;;;;;;;;22.00;99.90;;;;;;5002096;28;19926;-67
2022/05/23 06:47:04;;;;;;;;;;;22.50;99.90;;;;;;4998212;28;19933;-66
2022/05/23 06:49:34;;;;;;;;;;;22.70;99.90;;;;;;4998910;28;19952;-66
2022/05/23 06:52:01;;;;;;;;;;;23.80;99.90;;;;;;5006110;28;21763;-66
2022/05/23 06:54:29;;;;;;;;;;;24.50;99.90;;;;;;5006624;28;19984;-66
2022/05/23 06:56:56;;;;;;;;;;;25.00;99.90;;;;;;5005574;28;19933;-67
2022/05/23 06:59:23;;;;;;;;;;;25.00;99.90;;;;;;5014674;28;19936;-66
2022/05/23 07:01:49;;;;;;;;;;;25.10;99.90;;;;;;5001155;28;20025;-65
2022/05/23 07:04:16;;;;;;;;;;;24.90;99.90;;;;;;5003905;28;19925;-65
2022/05/23 07:12:23;;;;;;;;;;;24.90;99.90;;;;;;5003374;28;19947;-70
2022/05/23 07:14:54;;;;;;;;;;;25.50;99.90;;;;;;5008454;28;19961;-65
2022/05/23 07:17:21;;;;;;;;;;;25.80;99.90;;;;;;5001574;28;19930;-72
2022/05/23 07:19:56;;;;;;;;;;;26.20;99.90;;;;;;5008609;28;19937;-70
2022/05/23 07:22:25;;;;;;;;;;;26.60;99.90;;;;;;5005612;28;19944;-76
2022/05/23 07:24:52;;;;;;;;;;;27.10;99.90;;;;;;5013550;28;19925;-71
2022/05/23 07:27:23;;;;;;;;;;;27.60;99.90;;;;;;5005841;28;19925;-70
2022/05/23 07:29:53;;;;;;;;;;;27.90;99.90;;;;;;4999989;28;19933;-75
2022/05/23 07:32:19;;;;;;;;;;;27.80;99.90;;;;;;5003951;28;19925;-73
2022/05/23 07:34:46;;;;;;;;;;;28.20;99.90;;;;;;5008786;28;19983;-73
2022/05/23 07:37:15;;;;;;;;;;;28.10;99.90;;;;;;5000994;28;19936;-72
2022/05/23 07:39:41;;;;;;;;;;;27.90;99.90;;;;;;5004067;28;20476;-77
2022/05/23 07:42:09;;;;;;;;;;;28.00;99.90;;;;;;5008629;28;20387;-72
2022/05/23 07:44:38;;;;;;;;;;;28.60;99.90;;;;;;5007757;28;19933;-74
2022/05/23 07:47:06;;;;;;;;;;;28.90;99.90;;;;;;5006332;28;19925;-74
2022/05/23 07:49:34;;;;;;;;;;;28.60;99.90;;;;;;5005731;28;19933;-75
2022/05/23 07:52:08;;;;;;;;;;;28.50;99.90;;;;;;5004829;28;19932;-73
2022/05/23 08:02:53;;;;;;;;;;;28.90;99.90;;;;;;4991900;28;19934;-66
2022/05/23 08:05:20;;;;;;;;;;;28.70;99.90;;;;;;5001177;28;19932;-73
2022/05/23 08:07:47;;;;;;;;;;;28.80;99.90;;;;;;4998550;28;19936;-75
2022/05/23 08:10:13;;;;;;;;;;;28.70;99.90;;;;;;4997433;28;19929;-69
2022/05/23 08:12:42;;;;;;;;;;;27.30;99.90;;;;;;4989230;28;19929;-70
2022/05/23 08:15:15;;;;;;;;;;;27.20;99.90;;;;;;4997893;28;20476;-72
2022/05/23 08:17:42;;;;;;;;;;;27.30;99.90;;;;;;5003081;28;19929;-72
2022/05/23 08:20:09;;;;;;;;;;;27.30;99.90;;;;;;5005551;28;19925;-72
2022/05/23 08:22:35;;;;;;;;;;;27.40;99.90;;;;;;4998106;28;19934;-70
2022/05/23 08:25:03;;;;;;;;;;;27.70;99.90;;;;;;5002346;28;19936;-71
2022/05/23 08:27:31;;;;;;;;;;;27.30;99.90;;;;;;5001305;28;20008;-73
2022/05/23 08:29:57;;;;;;;;;;;27.30;99.90;;;;;;4998074;28;19933;-72
2022/05/23 08:32:24;;;;;;;;;;;26.80;99.90;;;;;;5003644;28;19933;-72
2022/05/23 08:34:52;;;;;;;;;;;26.60;99.90;;;;;;4997406;28;19930;-68
2022/05/23 08:37:18;;;;;;;;;;;26.80;99.90;;;;;;4998429;28;19929;-69
2022/05/23 08:39:47;;;;;;;;;;;27.20;99.90;;;;;;5003176;28;19941;-68
2022/05/23 08:42:39;;;;;;;;;;;27.30;99.90;;;;;;5000263;28;19935;-68
2022/05/23 08:45:11;;;;;;;;;;;27.30;99.90;;;;;;4959455;28;19930;-68
2022/05/23 08:47:59;;;;;;;;;;;28.00;99.90;;;;;;4964292;28;20010;-66
2022/05/23 08:50:44;;;;;;;;;;;28.20;99.90;;;;;;4959946;28;19930;-67
2022/05/23 08:53:13;;;;;;;;;;;29.10;99.90;;;;;;4955312;28;19930;-68
2022/05/23 08:55:41;;;;;;;;;;;29.60;99.90;;;;;;4957844;28;19926;-66
2022/05/23 08:58:16;;;;;;;;;;;30.20;99.90;;;;;;4963226;28;20728;-65
2022/05/23 09:00:54;;;;;;;;;;;30.90;99.90;;;;;;4963673;28;20375;-68
2022/05/23 09:03:41;;;;;;;;;;;31.50;99.90;;;;;;4965587;28;19965;-66
2022/05/23 09:06:10;;;;;;;;;;;31.70;99.90;;;;;;4964424;28;19926;-66
2022/05/23 09:08:48;;;;;;;;;;;30.60;99.90;;;;;;4966261;28;19926;-65
2022/05/23 09:11:19;;;;;;;;;;;30.10;99.90;;;;;;4958788;28;19927;-65
2022/05/23 09:13:46;;;;;;;;;;;30.00;99.90;;;;;;4966938;28;19953;-66
2022/05/23 09:16:13;;;;;;;;;;;29.30;99.90;;;;;;4967577;28;19930;-67
2022/05/23 09:18:51;;;;;;;;;;;29.40;99.90;;;;;;4960880;28;19937;-68
2022/05/23 09:21:18;;;;;;;;;;;29.30;99.90;;;;;;4959367;28;20559;-68
2022/05/23 09:23:49;;;;;;;;;;;29.60;99.90;;;;;;5006324;28;20392;-67
2022/05/23 09:26:20;;;;;;;;;;;29.40;99.90;;;;;;5005353;28;19965;-66
2022/05/23 09:28:46;;;;;;;;;;;28.90;99.90;;;;;;5002359;28;20012;-65
2022/05/23 09:31:27;;;;;;;;;;;29.20;99.90;;;;;;4996560;28;19935;-67
2022/05/23 09:33:56;;;;;;;;;;;29.10;99.90;;;;;;4998935;28;21193;-67
2022/05/23 09:36:28;;;;;;;;;;;28.60;99.90;;;;;;5002800;28;19926;-66
2022/05/23 09:38:56;;;;;;;;;;;27.90;99.90;;;;;;5007495;28;19943;-67
2022/05/23 09:47:44;;;;;;;;;;;28.40;99.90;;;;;;5003979;28;19926;-66
2022/05/23 09:50:26;;;;;;;;;;;28.80;99.90;;;;;;5003924;28;20115;-66
2022/05/23 09:53:24;;;;;;;;;;;29.20;99.90;;;;;;5002187;28;19938;-67
2022/05/23 09:56:17;;;;;;;;;;;29.10;99.90;;;;;;5000745;28;19929;-68
2022/05/23 09:58:46;;;;;;;;;;;28.60;99.90;;;;;;5004851;28;19940;-66
2022/05/23 10:01:23;;;;;;;;;;;28.50;99.90;;;;;;5012544;28;19926;-65
2022/05/23 10:03:50;;;;;;;;;;;28.60;99.90;;;;;;4996502;28;19930;-64
2022/05/23 10:06:17;;;;;;;;;;;28.80;99.90;;;;;;5001807;28;19937;-65
2022/05/23 10:08:45;;;;;;;;;;;28.60;99.90;;;;;;5004285;28;19930;-66
2022/05/23 10:11:20;;;;;;;;;;;28.80;99.90;;;;;;5000071;28;19926;-66
2022/05/23 10:13:52;;;;;;;;;;;28.70;99.90;;;;;;5010247;28;20552;-63
2022/05/23 10:16:27;;;;;;;;;;;28.30;99.90;;;;;;5001162;28;20296;-65
2022/05/23 10:18:53;;;;;;;;;;;27.80;99.90;;;;;;5009541;28;19929;-63
2022/05/23 10:21:26;;;;;;;;;;;27.40;99.90;;;;;;5007234;28;19925;-64
2022/05/23 10:23:59;;;;;;;;;;;27.20;99.90;;;;;;5007470;28;19929;-63
2022/05/23 10:26:26;;;;;;;;;;;27.40;99.90;;;;;;5025024;28;19982;-64
2022/05/23 10:28:58;;;;;;;;;;;27.10;99.90;;;;;;5007682;28;19925;-64
2022/05/23 10:31:33;;;;;;;;;;;26.70;99.90;;;;;;5003320;28;22010;-63
2022/05/23 10:34:22;;;;;;;;;;;26.70;99.90;;;;;;5003096;28;20524;-66
2022/05/23 10:36:53;;;;;;;;;;;26.70;99.90;;;;;;4997621;28;20447;-67
2022/05/23 10:42:17;;;;;;;;;;;27.10;99.90;;;;;;5007352;28;20673;-64
2022/05/23 10:44:44;;;;;;;;;;;27.20;99.90;;;;;;5006697;28;19925;-65
2022/05/23 10:47:30;;;;;;;;;;;27.00;99.90;;;;;;5001153;28;19940;-66
2022/05/23 10:50:05;;;;;;;;;;;27.10;99.90;;;;;;5008850;28;19926;-62
2022/05/23 10:52:39;;;;;;;;;;;27.40;99.90;;;;;;5003295;28;20442;-65
2022/05/23 10:55:12;;;;;;;;;;;27.40;99.90;;;;;;5005114;28;19936;-64
2022/05/23 10:58:01;;;;;;;;;;;27.00;99.90;;;;;;5011577;28;20349;-63
2022/05/23 11:00:46;;;;;;;;;;;26.80;99.90;;;;;;5017078;28;19949;-60
2022/05/23 11:03:25;;;;;;;;;;;27.00;99.90;;;;;;5005616;28;19941;-61
2022/05/23 11:06:16;;;;;;;;;;;27.10;99.90;;;;;;4999288;28;19932;-60
2022/05/23 11:08:43;;;;;;;;;;;27.20;99.90;;;;;;4998569;28;19933;-59
2022/05/23 11:11:14;;;;;;;;;;;27.40;99.90;;;;;;5003005;28;19925;-60
2022/05/23 11:13:40;;;;;;;;;;;27.30;99.90;;;;;;5010608;28;19966;-61
2022/05/23 11:16:27;;;;;;;;;;;26.90;99.90;;;;;;5004673;28;19925;-60
2022/05/23 11:19:04;;;;;;;;;;;26.30;99.90;;;;;;5004161;28;20016;-58
2022/05/23 11:21:36;;;;;;;;;;;25.60;99.90;;;;;;5033573;28;20016;-60
2022/05/23 11:24:09;;;;;;;;;;;25.50;99.90;;;;;;5007332;28;19980;-59
2022/05/23 11:26:45;;;;;;;;;;;25.70;99.90;;;;;;5002811;28;19964;-61
2022/05/23 11:34:52;;;;;;;;;;;25.90;99.90;;;;;;5013477;28;20920;-60
2022/05/23 11:39:49;;;;;;;;;;;26.00;99.90;;;;;;4999602;28;19964;-60
2022/05/23 11:42:19;;;;;;;;;;;25.90;99.90;;;;;;5005695;28;19925;-60
2022/05/23 11:44:48;;;;;;;;;;;25.80;99.90;;;;;;5003911;28;19925;-59
2022/05/23 11:47:15;;;;;;;;;;;25.90;99.90;;;;;;5001824;28;19936;-59
2022/05/23 11:49:43;;;;;;;;;;;26.10;99.90;;;;;;5001594;28;19933;-58
2022/05/23 11:52:21;;;;;;;;;;;26.40;99.90;;;;;;4999654;28;19948;-60
2022/05/23 11:54:48;;;;;;;;;;;26.60;99.90;;;;;;4990609;28;20010;-60
2022/05/23 12:01:02;;;;;;;;;;;26.10;99.90;;;;;;5005722;28;19967;-59
2022/05/23 12:03:49;;;;;;;;;;;25.60;99.90;;;;;;4997590;28;19933;-59
2022/05/23 12:06:22;;;;;;;;;;;25.40;99.90;;;;;;5035716;28;19960;-58
2022/05/23 12:08:59;;;;;;;;;;;25.30;99.90;;;;;;4993808;28;19937;-60
2022/05/23 12:11:27;;;;;;;;;;;25.60;99.90;;;;;;5000014;28;19947;-60
2022/05/23 12:13:58;;;;;;;;;;;26.00;99.90;;;;;;4999193;28;19926;-60
2022/05/23 12:16:28;;;;;;;;;;;26.20;99.90;;;;;;5004389;28;20399;-59
2022/05/23 12:19:08;;;;;;;;;;;26.50;99.90;;;;;;5007574;28;19925;-58
2022/05/23 12:21:35;;;;;;;;;;;26.40;99.90;;;;;;5003849;28;19930;-60
2022/05/23 12:24:25;;;;;;;;;;;26.40;99.90;;;;;;5006416;28;20301;-58
2022/05/23 12:27:22;;;;;;;;;;;26.20;99.90;;;;;;4999471;28;19929;-60
2022/05/23 12:30:12;;;;;;;;;;;25.80;99.90;;;;;;5001993;28;19925;-60
2022/05/23 12:32:45;;;;;;;;;;;25.50;99.90;;;;;;5001109;28;20024;-60
2022/05/23 12:35:14;;;;;;;;;;;25.10;99.90;;;;;;5002877;28;19932;-59
2022/05/23 12:37:56;;;;;;;;;;;24.90;99.90;;;;;;5008051;28;20292;-59
2022/05/23 12:40:23;;;;;;;;;;;24.60;99.90;;;;;;5007974;28;19932;-61
2022/05/23 12:42:50;;;;;;;;;;;24.20;99.90;;;;;;5008497;28;19930;-62
2022/05/23 12:45:23;;;;;;;;;;;24.20;99.90;;;;;;5006799;28;20421;-62
2022/05/23 12:47:59;;;;;;;;;;;24.20;99.90;;;;;;5008620;28;19952;-61
2022/05/23 12:50:35;;;;;;;;;;;24.10;99.90;;;;;;4980309;28;27066;-62
2022/05/23 12:53:21;;;;;;;;;;;24.00;99.90;;;;;;4894117;28;28090;-62
2022/05/23 12:55:51;;;;;;;;;;;23.70;99.90;;;;;;4910618;28;27069;-61
2022/05/23 12:58:44;;;;;;;;;;;23.60;99.90;;;;;;4905326;28;28099;-62
2022/05/23 13:01:13;;;;;;;;;;;23.60;99.90;;;;;;4911741;28;26060;-62
2022/05/23 13:03:51;;;;;;;;;;;23.70;99.90;;;;;;4907917;28;26099;-60
2022/05/23 13:06:24;;;;;;;;;;;23.90;99.90;;;;;;4914314;28;25100;-61
2022/05/23 13:08:53;;;;;;;;;;;23.90;99.90;;;;;;4915402;28;25200;-61
2022/05/23 13:11:25;;;;;;;;;;;23.80;99.90;;;;;;4918804;28;28117;-61
2022/05/23 13:13:51;;;;;;;;;;;24.00;99.90;;;;;;4906161;28;29134;-60
2022/05/23 13:16:25;;;;;;;;;;;24.20;99.90;;;;;;4914683;28;27082;-60
2022/05/23 13:27:11;;;;;;;;;;;24.30;99.90;;;;;;4915143;28;25054;-61
2022/05/23 13:29:37;;;;;;;;;;;24.20;99.90;;;;;;4915653;28;25087;-61
2022/05/23 13:32:07;;;;;;;;;;;24.10;99.90;;;;;;4939075;28;26053;-62
2022/05/23 13:34:35;;;;;;;;;;;24.00;99.90;;;;;;4939319;28;25069;-62
2022/05/23 13:37:06;;;;;;;;;;;24.30;99.90;;;;;;5011798;28;19941;-63
2022/05/23 13:39:41;;;;;;;;;;;24.40;99.90;;;;;;5010130;28;19932;-61
2022/05/23 13:42:19;;;;;;;;;;;24.70;99.90;;;;;;5008195;28;20791;-61
2022/05/23 13:44:48;;;;;;;;;;;25.00;99.90;;;;;;5006704;28;19940;-61
2022/05/23 13:47:23;;;;;;;;;;;25.50;99.90;;;;;;4993080;28;20331;-62
2022/05/23 13:50:05;;;;;;;;;;;25.80;99.90;;;;;;5008242;28;19932;-61
2022/05/23 13:52:38;;;;;;;;;;;25.50;99.90;;;;;;5009348;28;19932;-62
2022/05/23 13:55:08;;;;;;;;;;;25.80;99.90;;;;;;5005145;28;19937;-61
2022/05/23 13:57:58;;;;;;;;;;;25.70;99.90;;;;;;5010103;28;20311;-61
2022/05/23 14:00:33;;;;;;;;;;;25.90;99.90;;;;;;5006865;28;19929;-60
2022/05/23 14:03:02;;;;;;;;;;;26.20;99.90;;;;;;5006512;28;20049;-62
2022/05/23 14:05:31;;;;;;;;;;;26.50;99.90;;;;;;4995004;28;20389;-61
2022/05/23 14:08:00;;;;;;;;;;;26.20;99.90;;;;;;5003646;28;19925;-61
2022/05/23 14:10:28;;;;;;;;;;;25.80;99.90;;;;;;5007310;28;19933;-60
2022/05/23 14:12:58;;;;;;;;;;;25.70;99.90;;;;;;5007612;28;19932;-62
2022/05/23 14:15:27;;;;;;;;;;;26.00;99.90;;;;;;4992158;28;19940;-62
2022/05/23 14:17:54;;;;;;;;;;;25.80;99.90;;;;;;5010028;28;19941;-62
2022/05/23 14:20:30;;;;;;;;;;;25.80;99.90;;;;;;5004770;28;19933;-62
2022/05/23 14:23:00;;;;;;;;;;;26.00;99.90;;;;;;5004361;28;19930;-61
2022/05/23 14:25:30;;;;;;;;;;;26.00;99.90;;;;;;5001843;28;19925;-62
2022/05/23 14:28:04;;;;;;;;;;;25.90;99.90;;;;;;5006656;28;19948;-62
2022/05/23 14:30:35;;;;;;;;;;;25.90;99.90;;;;;;4991403;28;19931;-61
2022/05/23 14:33:29;;;;;;;;;;;25.80;99.90;;;;;;5005575;28;19956;-62
2022/05/23 14:35:59;;;;;;;;;;;26.30;99.90;;;;;;4990278;28;19961;-61
2022/05/23 14:38:31;;;;;;;;;;;27.00;99.90;;;;;;5006466;28;19944;-62
2022/05/23 14:41:15;;;;;;;;;;;28.10;99.90;;;;;;5006997;28;19926;-61
2022/05/23 14:44:07;;;;;;;;;;;28.80;99.90;;;;;;5003254;28;19935;-61
2022/05/23 14:46:36;;;;;;;;;;;30.00;99.90;;;;;;4999696;28;20004;-62
2022/05/23 14:49:15;;;;;;;;;;;30.30;99.90;;;;;;5007601;28;19939;-62
2022/05/23 14:51:44;;;;;;;;;;;30.20;99.90;;;;;;5005889;28;19933;-62
2022/05/23 15:00:41;;;;;;;;;;;29.20;99.90;;;;;;5003343;28;19940;-61
2022/05/23 15:03:20;;;;;;;;;;;28.60;99.90;;;;;;4997910;28;20029;-63
2022/05/23 15:05:47;;;;;;;;;;;28.20;99.90;;;;;;5003506;28;19930;-60
2022/05/23 15:08:14;;;;;;;;;;;28.40;99.90;;;;;;5008488;28;19926;-62
2022/05/23 15:10:41;;;;;;;;;;;28.50;99.90;;;;;;5000725;28;19926;-60
2022/05/23 15:13:08;;;;;;;;;;;28.60;99.90;;;;;;5005037;28;19972;-62
2022/05/23 15:15:37;;;;;;;;;;;28.90;99.90;;;;;;5006749;28;19926;-62
2022/05/23 15:18:04;;;;;;;;;;;28.30;99.90;;;;;;5002607;28;20380;-60
2022/05/23 15:20:31;;;;;;;;;;;28.60;99.90;;;;;;5005680;28;20471;-62
2022/05/23 15:22:58;;;;;;;;;;;28.70;99.90;;;;;;5004533;28;20016;-62
2022/05/23 15:25:27;;;;;;;;;;;28.20;99.90;;;;;;5007052;28;20388;-60
2022/05/23 15:27:53;;;;;;;;;;;28.10;99.90;;;;;;4994089;28;19929;-61
2022/05/23 15:30:25;;;;;;;;;;;28.20;99.90;;;;;;4915245;28;25142;-61
2022/05/23 15:32:52;;;;;;;;;;;28.40;99.90;;;;;;4894891;28;36060;-61
2022/05/23 15:35:20;;;;;;;;;;;28.60;99.90;;;;;;4934384;28;25053;-61
2022/05/23 15:37:46;;;;;;;;;;;28.80;99.90;;;;;;5003627;28;19987;-61
2022/05/23 15:40:14;;;;;;;;;;;28.10;99.90;;;;;;4996116;28;19926;-61
2022/05/23 15:42:44;;;;;;;;;;;27.10;99.90;;;;;;5001543;28;19987;-61
2022/05/23 15:45:12;;;;;;;;;;;27.10;99.90;;;;;;4987061;28;19932;-62
2022/05/23 15:47:42;;;;;;;;;;;27.80;99.90;;;;;;5004264;28;19934;-62
2022/05/23 15:50:10;;;;;;;;;;;28.50;99.90;;;;;;4998934;28;19926;-62